sensor_id;sensor_type;location;lat;lon;timestamp;pressure;altitude;pressure_sealevel;temperature;humidity
8575;BME280;4325;42.520;27.448;2023-01-05T00:01:28;102097.06;;;10.63;100.00
8575;BME280;4325;42.520;27.448;2023-01-05T00:03:55;102100.72;;;10.57;100.00
8575;BME280;4325;42.520;27.448;2023-01-05T00:06:22;102090.88;;;10.56;100.00
8575;BME280;4325;42.520;27.448;2023-01-05T00:08:50;102086.19;;;10.56;100.00
8575;BME280;4325;42.520;27.448;2023-01-05T00:11:19;102087.50;;;10.54;100.00
8575;BME280;4325;42.520;27.448;2023-01-05T00:14:08;102083.84;;;10.48;100.00
8575;BME280;4325;42.520;27.448;2023-01-05T00:16:55;102087.88;;;10.46;100.00
8575;BME280;4325;42.520;27.448;2023-01-05T00:19:39;102074.41;;;10.44;100.00
8575;BME280;4325;42.520;27.448;2023-01-05T00:22:25;102084.91;;;10.47;100.00
8575;BME280;4325;42.520;27.448;2023-01-05T00:25:03;102078.25;;;10.43;100.00
8575;BME280;4325;42.520;27.448;2023-01-05T00:27:30;102071.09;;;10.42;100.00
8575;BME280;4325;42.520;27.448;2023-01-05T00:29:57;102072.19;;;10.41;100.00
8575;BME280;4325;42.520;27.448;2023-01-05T00:32:25;102079.78;;;10.39;100.00
8575;BME280;4325;42.520;27.448;2023-01-05T00:34:53;102079.19;;;10.37;100.00
8575;BME280;4325;42.520;27.448;2023-01-05T00:37:21;102076.91;;;10.34;100.00
8575;BME280;4325;42.520;27.448;2023-01-05T00:39:48;102070.97;;;10.37;100.00
8575;BME280;4325;42.520;27.448;2023-01-05T00:42:17;102074.06;;;10.29;100.00
8575;BME280;4325;42.520;27.448;2023-01-05T00:44:44;102070.59;;;10.22;100.00
8575;BME280;4325;42.520;27.448;2023-01-05T00:47:11;102074.28;;;10.16;100.00
8575;BME280;4325;42.520;27.448;2023-01-05T00:49:38;102060.03;;;10.14;100.00
8575;BME280;4325;42.520;27.448;2023-01-05T00:52:05;102065.50;;;10.14;100.00
8575;BME280;4325;42.520;27.448;2023-01-05T00:54:33;102064.41;;;10.15;100.00
8575;BME280;4325;42.520;27.448;2023-01-05T00:57:00;102064.25;;;10.10;100.00
8575;BME280;4325;42.520;27.448;2023-01-05T00:59:28;102069.72;;;10.10;100.00
8575;BME280;4325;42.520;27.448;2023-01-05T01:01:55;102062.59;;;10.09;100.00
8575;BME280;4325;42.520;27.448;2023-01-05T01:04:22;102061.91;;;10.14;100.00
8575;BME280;4325;42.520;27.448;2023-01-05T01:06:49;102065.63;;;10.19;100.00
8575;BME280;4325;42.520;27.448;2023-01-05T01:09:16;102058.59;;;10.23;100.00
8575;BME280;4325;42.520;27.448;2023-01-05T01:11:43;102052.66;;;10.26;100.00
8575;BME280;4325;42.520;27.448;2023-01-05T01:14:11;102045.97;;;10.22;100.00
8575;BME280;4325;42.520;27.448;2023-01-05T01:16:40;102042.75;;;10.25;100.00
8575;BME280;4325;42.520;27.448;2023-01-05T01:19:07;102041.69;;;10.26;100.00
8575;BME280;4325;42.520;27.448;2023-01-05T01:21:34;102043.97;;;10.29;100.00
8575;BME280;4325;42.520;27.448;2023-01-05T01:24:01;102033.00;;;10.29;100.00
8575;BME280;4325;42.520;27.448;2023-01-05T01:26:28;102037.88;;;10.27;100.00
8575;BME280;4325;42.520;27.448;2023-01-05T01:28:55;102036.34;;;10.31;100.00
8575;BME280;4325;42.520;27.448;2023-01-05T01:31:22;102017.19;;;10.31;100.00
8575;BME280;4325;42.520;27.448;2023-01-05T01:33:50;102021.69;;;10.37;100.00
8575;BME280;4325;42.520;27.448;2023-01-05T01:36:17;102015.75;;;10.40;100.00
8575;BME280;4325;42.520;27.448;2023-01-05T01:38:44;102015.75;;;10.40;100.00
8575;BME280;4325;42.520;27.448;2023-01-05T01:41:11;102015.00;;;10.45;100.00
8575;BME280;4325;42.520;27.448;2023-01-05T01:43:41;102008.94;;;10.43;100.00
8575;BME280;4325;42.520;27.448;2023-01-05T01:46:09;102005.97;;;10.44;100.00
8575;BME280;4325;42.520;27.448;2023-01-05T01:48:38;101991.09;;;10.40;100.00
8575;BME280;4325;42.520;27.448;2023-01-05T01:51:11;101991.69;;;10.42;100.00
8575;BME280;4325;42.520;27.448;2023-01-05T01:53:42;101982.28;;;10.38;100.00
8575;BME280;4325;42.520;27.448;2023-01-05T01:56:13;101989.31;;;10.34;100.00
8575;BME280;4325;42.520;27.448;2023-01-05T01:58:41;101989.31;;;10.34;100.00
8575;BME280;4325;42.520;27.448;2023-01-05T02:01:08;101977.03;;;10.37;100.00
8575;BME280;4325;42.520;27.448;2023-01-05T02:03:35;101978.72;;;10.38;100.00
8575;BME280;4325;42.520;27.448;2023-01-05T02:06:03;101974.09;;;10.38;100.00
8575;BME280;4325;42.520;27.448;2023-01-05T02:08:31;101977.88;;;10.37;100.00
8575;BME280;4325;42.520;27.448;2023-01-05T02:13:57;101970.53;;;10.26;100.00
8575;BME280;4325;42.520;27.448;2023-01-05T02:16:35;101967.66;;;10.21;100.00
8575;BME280;4325;42.520;27.448;2023-01-05T02:19:49;101963.13;;;10.15;100.00
8575;BME280;4325;42.520;27.448;2023-01-05T02:25:39;101954.66;;;10.05;100.00
8575;BME280;4325;42.520;27.448;2023-01-05T02:28:18;101949.09;;;10.00;100.00
8575;BME280;4325;42.520;27.448;2023-01-05T02:31:01;101943.63;;;10.00;100.00
8575;BME280;4325;42.520;27.448;2023-01-05T02:34:02;101938.03;;;9.95;100.00
8575;BME280;4325;42.520;27.448;2023-01-05T02:36:36;101931.59;;;9.89;100.00
8575;BME280;4325;42.520;27.448;2023-01-05T02:39:11;101936.69;;;9.86;100.00
8575;BME280;4325;42.520;27.448;2023-01-05T02:41:45;101926.00;;;9.84;100.00
8575;BME280;4325;42.520;27.448;2023-01-05T02:44:15;101919.72;;;9.72;100.00
8575;BME280;4325;42.520;27.448;2023-01-05T02:46:44;101924.34;;;9.72;100.00
8575;BME280;4325;42.520;27.448;2023-01-05T02:49:13;101921.13;;;9.75;100.00
8575;BME280;4325;42.520;27.448;2023-01-05T02:51:46;101916.25;;;9.77;100.00
8575;BME280;4325;42.520;27.448;2023-01-05T02:54:18;101916.72;;;9.74;100.00
8575;BME280;4325;42.520;27.448;2023-01-05T02:56:50;101917.22;;;9.71;100.00
8575;BME280;4325;42.520;27.448;2023-01-05T02:59:23;101926.09;;;9.66;100.00
8575;BME280;4325;42.520;27.448;2023-01-05T03:01:56;101922.66;;;9.59;100.00
8575;BME280;4325;42.520;27.448;2023-01-05T03:04:27;101908.72;;;9.49;100.00
8575;BME280;4325;42.520;27.448;2023-01-05T03:06:57;101907.31;;;9.47;100.00
8575;BME280;4325;42.520;27.448;2023-01-05T03:09:27;101907.78;;;9.44;100.00
8575;BME280;4325;42.520;27.448;2023-01-05T03:11:58;101908.84;;;9.43;100.00
8575;BME280;4325;42.520;27.448;2023-01-05T03:14:53;101903.84;;;9.40;100.00
8575;BME280;4325;42.520;27.448;2023-01-05T03:17:27;101895.53;;;9.35;100.00
8575;BME280;4325;42.520;27.448;2023-01-05T03:19:57;101896.72;;;9.39;100.00
8575;BME280;4325;42.520;27.448;2023-01-05T03:22:27;101898.38;;;9.40;100.00
8575;BME280;4325;42.520;27.448;2023-01-05T03:25:13;101893.53;;;9.42;100.00
8575;BME280;4325;42.520;27.448;2023-01-05T03:27:59;101885.81;;;9.39;100.00
8575;BME280;4325;42.520;27.448;2023-01-05T03:30:51;101899.00;;;9.42;100.00
8575;BME280;4325;42.520;27.448;2023-01-05T03:33:43;101898.28;;;9.46;100.00
8575;BME280;4325;42.520;27.448;2023-01-05T03:36:29;101891.53;;;9.49;100.00
8575;BME280;4325;42.520;27.448;2023-01-05T03:39:00;101901.97;;;9.52;100.00
8575;BME280;4325;42.520;27.448;2023-01-05T03:41:28;101882.94;;;9.45;100.00
8575;BME280;4325;42.520;27.448;2023-01-05T03:43:55;101887.69;;;9.50;100.00
8575;BME280;4325;42.520;27.448;2023-01-05T03:46:22;101880.94;;;9.52;100.00
8575;BME280;4325;42.520;27.448;2023-01-05T03:48:51;101876.91;;;9.55;100.00
8575;BME280;4325;42.520;27.448;2023-01-05T03:51:18;101869.53;;;9.44;100.00
8575;BME280;4325;42.520;27.448;2023-01-05T03:53:45;101875.44;;;9.29;100.00
8575;BME280;4325;42.520;27.448;2023-01-05T03:56:11;101862.25;;;9.14;100.00
8575;BME280;4325;42.520;27.448;2023-01-05T03:58:38;101861.84;;;8.99;100.00
8575;BME280;4325;42.520;27.448;2023-01-05T04:01:05;101859.66;;;8.78;100.00
8575;BME280;4325;42.520;27.448;2023-01-05T04:03:34;101860.16;;;8.57;100.00
8575;BME280;4325;42.520;27.448;2023-01-05T04:06:02;101855.19;;;8.36;100.00
8575;BME280;4325;42.520;27.448;2023-01-05T04:08:29;101855.31;;;8.23;100.00
8575;BME280;4325;42.520;27.448;2023-01-05T04:10:56;101846.47;;;8.09;100.00
8575;BME280;4325;42.520;27.448;2023-01-05T04:13:35;101842.00;;;7.96;100.00
8575;BME280;4325;42.520;27.448;2023-01-05T04:16:02;101831.13;;;7.78;100.00
8575;BME280;4325;42.520;27.448;2023-01-05T04:18:29;101838.28;;;7.73;100.00
8575;BME280;4325;42.520;27.448;2023-01-05T04:20:56;101833.53;;;7.68;100.00
8575;BME280;4325;42.520;27.448;2023-01-05T04:23:24;101826.72;;;7.59;100.00
8575;BME280;4325;42.520;27.448;2023-01-05T04:25:51;101828.44;;;7.54;100.00
8575;BME280;4325;42.520;27.448;2023-01-05T04:28:17;101839.19;;;7.49;100.00
8575;BME280;4325;42.520;27.448;2023-01-05T04:30:47;101820.78;;;7.44;100.00
8575;BME280;4325;42.520;27.448;2023-01-05T04:33:14;101830.47;;;7.58;100.00
8575;BME280;4325;42.520;27.448;2023-01-05T04:35:41;101837.44;;;7.72;100.00
8575;BME280;4325;42.520;27.448;2023-01-05T04:38:08;101838.38;;;7.84;100.00
8575;BME280;4325;42.520;27.448;2023-01-05T04:40:36;101840.81;;;7.92;100.00
8575;BME280;4325;42.520;27.448;2023-01-05T04:43:04;101843.25;;;8.01;100.00
8575;BME280;4325;42.520;27.448;2023-01-05T04:45:31;101842.41;;;8.00;100.00
8575;BME280;4325;42.520;27.448;2023-01-05T04:47:58;101839.88;;;7.98;100.00
8575;BME280;4325;42.520;27.448;2023-01-05T04:50:25;101836.69;;;8.02;100.00
8575;BME280;4325;42.520;27.448;2023-01-05T04:52:52;101840.41;;;8.07;100.00
8575;BME280;4325;42.520;27.448;2023-01-05T04:55:19;101840.94;;;8.16;100.00
8575;BME280;4325;42.520;27.448;2023-01-05T04:57:47;101839.97;;;8.28;100.00
8575;BME280;4325;42.520;27.448;2023-01-05T05:00:14;101838.13;;;8.40;100.00
8575;BME280;4325;42.520;27.448;2023-01-05T05:02:41;101834.63;;;8.51;100.00
8575;BME280;4325;42.520;27.448;2023-01-05T05:05:08;101823.59;;;8.58;100.00
8575;BME280;4325;42.520;27.448;2023-01-05T05:07:35;101827.66;;;8.67;100.00
8575;BME280;4325;42.520;27.448;2023-01-05T05:10:02;101829.34;;;8.68;100.00
8575;BME280;4325;42.520;27.448;2023-01-05T05:12:30;101828.88;;;8.71;100.00
8575;BME280;4325;42.520;27.448;2023-01-05T05:14:58;101829.25;;;8.75;100.00
8575;BME280;4325;42.520;27.448;2023-01-05T05:17:25;101824.03;;;8.73;100.00
8575;BME280;4325;42.520;27.448;2023-01-05T05:19:52;101827.59;;;8.74;100.00
8575;BME280;4325;42.520;27.448;2023-01-05T05:22:18;101825.53;;;8.69;100.00
8575;BME280;4325;42.520;27.448;2023-01-05T05:24:45;101815.09;;;8.66;100.00
8575;BME280;4325;42.520;27.448;2023-01-05T05:27:12;101815.31;;;8.64;100.00
8575;BME280;4325;42.520;27.448;2023-01-05T05:29:39;101818.88;;;8.65;100.00
8575;BME280;4325;42.520;27.448;2023-01-05T05:32:07;101809.63;;;8.66;100.00
8575;BME280;4325;42.520;27.448;2023-01-05T05:34:34;101814.69;;;8.51;100.00
8575;BME280;4325;42.520;27.448;2023-01-05T05:37:01;101803.28;;;8.24;100.00
8575;BME280;4325;42.520;27.448;2023-01-05T05:39:28;101802.09;;;8.02;100.00
8575;BME280;4325;42.520;27.448;2023-01-05T05:41:54;101798.31;;;7.85;100.00
8575;BME280;4325;42.520;27.448;2023-01-05T05:44:21;101794.00;;;7.77;100.00
8575;BME280;4325;42.520;27.448;2023-01-05T05:46:48;101789.91;;;7.68;100.00
8575;BME280;4325;42.520;27.448;2023-01-05T05:49:16;101790.81;;;7.62;100.00
8575;BME280;4325;42.520;27.448;2023-01-05T05:51:43;101779.16;;;7.55;100.00
8575;BME280;4325;42.520;27.448;2023-01-05T05:54:10;101777.50;;;7.54;100.00
8575;BME280;4325;42.520;27.448;2023-01-05T05:56:37;101777.09;;;7.51;100.00
8575;BME280;4325;42.520;27.448;2023-01-05T05:59:04;101763.31;;;7.46;100.00
8575;BME280;4325;42.520;27.448;2023-01-05T06:01:30;101768.00;;;7.39;100.00
8575;BME280;4325;42.520;27.448;2023-01-05T06:03:57;101761.28;;;7.41;100.00
8575;BME280;4325;42.520;27.448;2023-01-05T06:06:26;101769.00;;;7.44;100.00
8575;BME280;4325;42.520;27.448;2023-01-05T06:08:53;101761.50;;;7.58;100.00
8575;BME280;4325;42.520;27.448;2023-01-05T06:11:20;101775.66;;;7.84;100.00
8575;BME280;4325;42.520;27.448;2023-01-05T06:13:47;101774.25;;;8.12;100.00
8575;BME280;4325;42.520;27.448;2023-01-05T06:16:14;101771.03;;;8.62;100.00
8575;BME280;4325;42.520;27.448;2023-01-05T06:18:41;101761.69;;;8.82;100.00
8575;BME280;4325;42.520;27.448;2023-01-05T06:21:08;101748.88;;;9.05;100.00
8575;BME280;4325;42.520;27.448;2023-01-05T06:23:36;101751.75;;;9.34;100.00
8575;BME280;4325;42.520;27.448;2023-01-05T06:26:03;101748.66;;;9.18;100.00
8575;BME280;4325;42.520;27.448;2023-01-05T06:28:30;101760.91;;;9.16;100.00
8575;BME280;4325;42.520;27.448;2023-01-05T06:30:57;101750.94;;;9.21;100.00
8575;BME280;4325;42.520;27.448;2023-01-05T06:33:23;101757.56;;;9.49;100.00
8575;BME280;4325;42.520;27.448;2023-01-05T06:35:50;101756.81;;;10.16;100.00
8575;BME280;4325;42.520;27.448;2023-01-05T06:38:17;101769.34;;;10.40;100.00
8575;BME280;4325;42.520;27.448;2023-01-05T06:40:47;101755.25;;;11.15;100.00
8575;BME280;4325;42.520;27.448;2023-01-05T06:43:13;101749.22;;;11.51;100.00
8575;BME280;4325;42.520;27.448;2023-01-05T06:45:40;101754.59;;;11.79;100.00
8575;BME280;4325;42.520;27.448;2023-01-05T06:48:07;101750.78;;;12.29;100.00
8575;BME280;4325;42.520;27.448;2023-01-05T06:50:34;101754.75;;;13.01;96.87
8575;BME280;4325;42.520;27.448;2023-01-05T06:53:01;101749.94;;;12.55;95.90
8575;BME280;4325;42.520;27.448;2023-01-05T06:55:28;101754.84;;;12.80;95.72
8575;BME280;4325;42.520;27.448;2023-01-05T06:57:56;101750.25;;;12.58;95.56
8575;BME280;4325;42.520;27.448;2023-01-05T07:00:23;101748.78;;;12.51;96.49
8575;BME280;4325;42.520;27.448;2023-01-05T07:02:50;101748.69;;;12.68;95.38
8575;BME280;4325;42.520;27.448;2023-01-05T07:05:17;101747.38;;;14.01;92.37
8575;BME280;4325;42.520;27.448;2023-01-05T07:07:44;101749.47;;;14.55;84.03
8575;BME280;4325;42.520;27.448;2023-01-05T07:10:11;101748.09;;;14.58;81.64
8575;BME280;4325;42.520;27.448;2023-01-05T07:12:37;101748.66;;;14.55;80.78
8575;BME280;4325;42.520;27.448;2023-01-05T07:15:07;101741.56;;;13.87;84.65
8575;BME280;4325;42.520;27.448;2023-01-05T07:17:34;101738.06;;;14.22;85.73
8575;BME280;4325;42.520;27.448;2023-01-05T07:20:02;101739.25;;;14.41;83.81
8575;BME280;4325;42.520;27.448;2023-01-05T07:22:29;101737.19;;;15.82;76.46
8575;BME280;4325;42.520;27.448;2023-01-05T07:24:56;101731.25;;;17.26;65.18
8575;BME280;4325;42.520;27.448;2023-01-05T07:27:23;101733.97;;;17.83;59.87
8575;BME280;4325;42.520;27.448;2023-01-05T07:29:50;101727.66;;;18.38;56.33
8575;BME280;4325;42.520;27.448;2023-01-05T07:32:18;101716.53;;;19.40;52.78
8575;BME280;4325;42.520;27.448;2023-01-05T07:34:45;101714.31;;;20.46;49.16
8575;BME280;4325;42.520;27.448;2023-01-05T07:37:12;101715.66;;;19.86;47.96
8575;BME280;4325;42.520;27.448;2023-01-05T07:39:39;101710.69;;;19.83;48.66
8575;BME280;4325;42.520;27.448;2023-01-05T07:42:05;101706.22;;;21.02;46.00
8575;BME280;4325;42.520;27.448;2023-01-05T07:44:32;101699.44;;;21.87;42.83
8575;BME280;4325;42.520;27.448;2023-01-05T07:46:59;101703.44;;;20.58;44.33
8575;BME280;4325;42.520;27.448;2023-01-05T07:49:27;101705.16;;;21.12;43.74
8575;BME280;4325;42.520;27.448;2023-01-05T07:51:55;101706.28;;;20.89;43.17
8575;BME280;4325;42.520;27.448;2023-01-05T07:54:22;101701.38;;;20.28;44.95
8575;BME280;4325;42.520;27.448;2023-01-05T07:56:48;101698.56;;;19.51;47.09
8575;BME280;4325;42.520;27.448;2023-01-05T07:59:15;101692.28;;;19.59;47.35
8575;BME280;4325;42.520;27.448;2023-01-05T08:01:42;101696.78;;;21.43;43.87
8575;BME280;4325;42.520;27.448;2023-01-05T08:04:09;101690.78;;;22.06;40.60
8575;BME280;4325;42.520;27.448;2023-01-05T08:06:38;101692.22;;;21.86;41.47
8575;BME280;4325;42.520;27.448;2023-01-05T08:09:05;101696.38;;;22.23;41.32
8575;BME280;4325;42.520;27.448;2023-01-05T08:11:45;101696.56;;;22.26;40.40
8575;BME280;4325;42.520;27.448;2023-01-05T08:14:12;101696.53;;;22.09;40.84
8575;BME280;4325;42.520;27.448;2023-01-05T08:16:39;101680.59;;;22.01;41.39
8575;BME280;4325;42.520;27.448;2023-01-05T08:19:07;101674.06;;;22.66;39.17
8575;BME280;4325;42.520;27.448;2023-01-05T08:21:34;101670.09;;;21.50;40.59
8575;BME280;4325;42.520;27.448;2023-01-05T08:24:03;101673.94;;;21.24;41.38
8575;BME280;4325;42.520;27.448;2023-01-05T08:26:30;101667.75;;;20.38;42.98
8575;BME280;4325;42.520;27.448;2023-01-05T08:28:57;101668.88;;;19.33;46.05
8575;BME280;4325;42.520;27.448;2023-01-05T08:31:28;101666.00;;;20.64;44.27
8575;BME280;4325;42.520;27.448;2023-01-05T08:33:56;101661.59;;;22.20;40.51
8575;BME280;4325;42.520;27.448;2023-01-05T08:36:24;101659.25;;;22.91;38.44
8575;BME280;4325;42.520;27.448;2023-01-05T08:38:52;101663.94;;;23.92;36.91
8575;BME280;4325;42.520;27.448;2023-01-05T08:41:21;101661.59;;;24.23;35.96
8575;BME280;4325;42.520;27.448;2023-01-05T08:43:49;101656.97;;;23.77;35.83
8575;BME280;4325;42.520;27.448;2023-01-05T08:46:16;101657.50;;;22.44;38.59
8575;BME280;4325;42.520;27.448;2023-01-05T08:48:47;101642.41;;;21.54;40.16
8575;BME280;4325;42.520;27.448;2023-01-05T08:51:14;101633.34;;;21.96;39.77
8575;BME280;4325;42.520;27.448;2023-01-05T08:53:40;101640.06;;;21.95;39.26
8575;BME280;4325;42.520;27.448;2023-01-05T08:56:07;101631.00;;;21.81;40.09
8575;BME280;4325;42.520;27.448;2023-01-05T08:58:36;101621.88;;;22.32;38.68
8575;BME280;4325;42.520;27.448;2023-01-05T09:01:05;101624.94;;;21.79;40.49
8575;BME280;4325;42.520;27.448;2023-01-05T09:03:32;101609.41;;;22.38;39.23
8575;BME280;4325;42.520;27.448;2023-01-05T09:05:59;101606.50;;;22.98;37.92
8575;BME280;4325;42.520;27.448;2023-01-05T09:08:28;101605.53;;;22.94;38.22
8575;BME280;4325;42.520;27.448;2023-01-05T09:10:55;101599.69;;;22.53;38.42
8575;BME280;4325;42.520;27.448;2023-01-05T09:13:22;101595.25;;;21.83;40.11
8575;BME280;4325;42.520;27.448;2023-01-05T09:15:50;101581.59;;;22.84;38.24
8575;BME280;4325;42.520;27.448;2023-01-05T09:18:17;101577.06;;;22.63;38.40
8575;BME280;4325;42.520;27.448;2023-01-05T09:20:44;101571.72;;;22.87;38.40
8575;BME280;4325;42.520;27.448;2023-01-05T09:23:12;101571.38;;;23.85;36.45
8575;BME280;4325;42.520;27.448;2023-01-05T09:25:39;101545.34;;;23.34;36.59
8575;BME280;4325;42.520;27.448;2023-01-05T09:28:06;101544.84;;;23.12;37.46
8575;BME280;4325;42.520;27.448;2023-01-05T09:30:33;101543.19;;;22.73;38.43
8575;BME280;4325;42.520;27.448;2023-01-05T09:33:01;101526.16;;;24.36;36.49
8575;BME280;4325;42.520;27.448;2023-01-05T09:35:28;101519.44;;;23.75;36.05
8575;BME280;4325;42.520;27.448;2023-01-05T09:37:55;101517.19;;;23.69;36.56
8575;BME280;4325;42.520;27.448;2023-01-05T09:40:22;101514.03;;;22.91;38.26
8575;BME280;4325;42.520;27.448;2023-01-05T09:42:49;101513.09;;;23.16;37.57
8575;BME280;4325;42.520;27.448;2023-01-05T09:45:23;101500.69;;;24.29;36.40
8575;BME280;4325;42.520;27.448;2023-01-05T09:47:52;101496.22;;;23.33;37.41
8575;BME280;4325;42.520;27.448;2023-01-05T09:50:24;101487.13;;;22.31;38.33
8575;BME280;4325;42.520;27.448;2023-01-05T09:52:52;101478.66;;;22.66;38.17
8575;BME280;4325;42.520;27.448;2023-01-05T09:55:23;101469.34;;;24.36;36.02
8575;BME280;4325;42.520;27.448;2023-01-05T09:57:53;101468.38;;;25.01;34.27
8575;BME280;4325;42.520;27.448;2023-01-05T10:00:21;101473.38;;;24.14;35.30
8575;BME280;4325;42.520;27.448;2023-01-05T10:02:51;101458.31;;;21.67;39.49
8575;BME280;4325;42.520;27.448;2023-01-05T10:05:21;101455.53;;;20.37;42.12
8575;BME280;4325;42.520;27.448;2023-01-05T10:07:52;101450.25;;;19.39;44.95
8575;BME280;4325;42.520;27.448;2023-01-05T10:10:28;101445.63;;;18.25;48.45
8575;BME280;4325;42.520;27.448;2023-01-05T10:12:59;101434.44;;;17.52;51.79
8575;BME280;4325;42.520;27.448;2023-01-05T10:15:35;101436.66;;;17.69;52.97
8575;BME280;4325;42.520;27.448;2023-01-05T10:18:12;101433.75;;;17.93;51.84
8575;BME280;4325;42.520;27.448;2023-01-05T10:20:48;101410.66;;;20.61;45.00
8575;BME280;4325;42.520;27.448;2023-01-05T10:23:28;101396.09;;;20.81;42.31
8575;BME280;4325;42.520;27.448;2023-01-05T10:26:05;101403.53;;;20.94;42.32
8575;BME280;4325;42.520;27.448;2023-01-05T10:28:40;101387.47;;;21.77;40.54
8575;BME280;4325;42.520;27.448;2023-01-05T10:31:18;101394.31;;;23.51;36.93
8575;BME280;4325;42.520;27.448;2023-01-05T10:33:49;101371.38;;;23.46;36.61
8575;BME280;4325;42.520;27.448;2023-01-05T10:36:40;101371.16;;;24.28;36.22
8575;BME280;4325;42.520;27.448;2023-01-05T10:39:18;101366.94;;;26.68;31.75
8575;BME280;4325;42.520;27.448;2023-01-05T10:41:57;101359.56;;;26.13;31.78
8575;BME280;4325;42.520;27.448;2023-01-05T10:44:53;101360.66;;;23.93;34.80
8575;BME280;4325;42.520;27.448;2023-01-05T10:47:22;101341.56;;;22.88;36.88
8575;BME280;4325;42.520;27.448;2023-01-05T10:49:50;101339.41;;;23.14;36.71
8575;BME280;4325;42.520;27.448;2023-01-05T10:52:20;101344.75;;;24.66;34.82
8575;BME280;4325;42.520;27.448;2023-01-05T10:54:49;101324.25;;;26.63;31.24
8575;BME280;4325;42.520;27.448;2023-01-05T10:57:36;101322.66;;;28.41;28.76
8575;BME280;4325;42.520;27.448;2023-01-05T11:00:07;101323.63;;;29.34;27.34
8575;BME280;4325;42.520;27.448;2023-01-05T11:02:36;101331.59;;;27.79;28.95
8575;BME280;4325;42.520;27.448;2023-01-05T11:05:13;101329.22;;;26.50;30.51
8575;BME280;4325;42.520;27.448;2023-01-05T11:07:48;101326.34;;;24.77;33.31
8575;BME280;4325;42.520;27.448;2023-01-05T11:10:21;101327.19;;;22.98;36.37
8575;BME280;4325;42.520;27.448;2023-01-05T11:12:54;101324.66;;;23.05;36.69
8575;BME280;4325;42.520;27.448;2023-01-05T11:15:25;101311.28;;;24.57;34.77
8575;BME280;4325;42.520;27.448;2023-01-05T11:17:52;101318.66;;;23.69;35.63
8575;BME280;4325;42.520;27.448;2023-01-05T11:20:19;101306.88;;;23.30;35.83
8575;BME280;4325;42.520;27.448;2023-01-05T11:22:48;101292.00;;;21.97;38.08
8575;BME280;4325;42.520;27.448;2023-01-05T11:25:23;101304.75;;;22.07;38.25
8575;BME280;4325;42.520;27.448;2023-01-05T11:28:12;101296.56;;;23.22;36.66
8575;BME280;4325;42.520;27.448;2023-01-05T11:30:46;101286.69;;;23.25;35.92
8575;BME280;4325;42.520;27.448;2023-01-05T11:33:25;101291.03;;;22.22;37.82
8575;BME280;4325;42.520;27.448;2023-01-05T11:35:54;101286.78;;;21.87;38.74
8575;BME280;4325;42.520;27.448;2023-01-05T11:38:25;101279.22;;;20.90;40.43
8575;BME280;4325;42.520;27.448;2023-01-05T11:40:53;101275.28;;;21.89;38.90
8575;BME280;4325;42.520;27.448;2023-01-05T11:43:21;101270.63;;;23.22;36.40
8575;BME280;4325;42.520;27.448;2023-01-05T11:45:50;101271.34;;;22.77;36.94
8575;BME280;4325;42.520;27.448;2023-01-05T11:48:21;101256.63;;;21.72;38.44
8575;BME280;4325;42.520;27.448;2023-01-05T11:50:51;101244.66;;;23.21;36.33
8575;BME280;4325;42.520;27.448;2023-01-05T11:53:25;101239.25;;;24.30;34.81
8575;BME280;4325;42.520;27.448;2023-01-05T11:56:03;101251.44;;;24.62;33.97
8575;BME280;4325;42.520;27.448;2023-01-05T11:58:32;101243.22;;;24.17;34.93
8575;BME280;4325;42.520;27.448;2023-01-05T12:01:33;101237.84;;;24.36;34.42
8575;BME280;4325;42.520;27.448;2023-01-05T12:07:06;101226.84;;;26.48;31.20
8575;BME280;4325;42.520;27.448;2023-01-05T12:09:41;101218.75;;;25.49;32.27
8575;BME280;4325;42.520;27.448;2023-01-05T12:12:20;101210.19;;;25.30;32.87
8575;BME280;4325;42.520;27.448;2023-01-05T12:15:00;101219.31;;;25.27;33.07
8575;BME280;4325;42.520;27.448;2023-01-05T12:17:40;101207.66;;;25.52;32.11
8575;BME280;4325;42.520;27.448;2023-01-05T12:20:30;101206.44;;;24.82;33.23
8575;BME280;4325;42.520;27.448;2023-01-05T12:23:30;101199.84;;;24.23;34.08
8575;BME280;4325;42.520;27.448;2023-01-05T12:26:13;101207.19;;;23.34;35.77
8575;BME280;4325;42.520;27.448;2023-01-05T12:28:54;101193.41;;;22.02;37.72
8575;BME280;4325;42.520;27.448;2023-01-05T12:31:34;101192.16;;;21.44;39.20
8575;BME280;4325;42.520;27.448;2023-01-05T12:34:24;101187.03;;;21.00;40.27
8575;BME280;4325;42.520;27.448;2023-01-05T12:37:16;101181.16;;;19.76;43.05
8575;BME280;4325;42.520;27.448;2023-01-05T12:40:08;101187.22;;;19.78;43.51
8575;BME280;4325;42.520;27.448;2023-01-05T12:43:02;101180.13;;;19.55;44.24
8575;BME280;4325;42.520;27.448;2023-01-05T12:48:29;101168.13;;;18.27;49.17
8575;BME280;4325;42.520;27.448;2023-01-05T12:51:05;101160.94;;;17.76;51.74
8575;BME280;4325;42.520;27.448;2023-01-05T12:53:43;101179.72;;;17.06;56.20
8575;BME280;4325;42.520;27.448;2023-01-05T12:56:20;101177.91;;;16.83;59.61
8575;BME280;4325;42.520;27.448;2023-01-05T12:59:02;101184.81;;;16.67;60.74
8575;BME280;4325;42.520;27.448;2023-01-05T13:01:37;101168.09;;;16.03;64.70
8575;BME280;4325;42.520;27.448;2023-01-05T13:04:13;101178.88;;;15.80;66.64
8575;BME280;4325;42.520;27.448;2023-01-05T13:06:47;101170.13;;;15.73;67.78
8575;BME280;4325;42.520;27.448;2023-01-05T13:09:20;101174.44;;;16.03;65.16
8575;BME280;4325;42.520;27.448;2023-01-05T13:11:50;101177.00;;;17.34;58.65
8575;BME280;4325;42.520;27.448;2023-01-05T13:14:24;101174.16;;;17.93;53.27
8575;BME280;4325;42.520;27.448;2023-01-05T13:16:55;101160.19;;;18.34;51.44
8575;BME280;4325;42.520;27.448;2023-01-05T13:19:28;101162.41;;;19.12;47.81
8575;BME280;4325;42.520;27.448;2023-01-05T13:21:57;101162.78;;;18.88;48.09
8575;BME280;4325;42.520;27.448;2023-01-05T13:24:30;101189.16;;;19.08;47.57
8575;BME280;4325;42.520;27.448;2023-01-05T13:27:00;101180.53;;;19.09;47.51
8575;BME280;4325;42.520;27.448;2023-01-05T13:29:32;101198.84;;;19.41;46.55